• Join FlightAware (Why Join?)
  • Login
  • US Flag 
Rudolph Flight #1: Arrived! 
06:22AM EST


 

Airport Tracker/Info


-or-


 

Live Flight TrackerFlight Track Log ✈ GJS3618 ✈ 22-Oct-2013 ✈ KATL - KDEN

Flight Track Log - Related Links

Times and Time Zones

All times are in EDT time to prevent confusion due to time zone crossing. See the GJS3618 flight status page for this flight to view local times or setup timezone preferences in your user account.

Time Position Orientation Groundspeed Altitude Reporting Facility
EDT Latitude Longitude Course Direction KTS MPH feet Rate Location/Type
01:13PM 33.6500 -84.4667 252° West 165 190 2,400  Level Atlanta TRACON
01:14PM 33.6667 -84.5167 292° West 194 223 4,400 1,920 Climbing Atlanta TRACON
01:15PM 33.6667 -84.6000 270° West 251 289 6,300 2,280 Climbing Atlanta TRACON
01:16PM 33.8000 -84.5324 270° West  Level FlightAware Approximate
01:17PM 33.7895 -84.6550 252° West  Level FlightAware Approximate
01:17PM 33.7003 -84.7778 283° West 278 320 11,800  Level Atlanta Center
01:18PM 33.7568 -84.7733 252° West  Level FlightAware Approximate
01:18PM 33.6892 -84.8778 262° West 278 320 13,400  Level Atlanta Center
01:19PM 33.7241 -84.8914 252° West  Level FlightAware Approximate
01:19PM 33.6781 -84.9750 262° West 298 343 15,800  Level Atlanta Center
01:20PM 33.6689 -85.0772 264° West 309 356 17,700 2,100 Climbing Atlanta Center
01:21PM 33.6553 -85.1917 262° West 315 362 20,000 1,800 Climbing Atlanta Center
01:22PM 33.6500 -85.2967 267° West 315 362 21,400 1,440 Climbing Atlanta Center
01:23PM 33.6531 -85.4064 272° West 325 374 22,900 1,440 Climbing Atlanta Center
01:24PM 33.6581 -85.5189 273° West 331 381 24,300 1,560 Climbing Atlanta Center
01:25PM 33.6608 -85.6311 272° West 337 388 26,100 1,440 Climbing Atlanta Center
01:26PM 33.6614 -85.7383 270° West 332 382 27,200 960 Climbing Atlanta Center
01:27PM 33.6600 -85.8333 269° West 327 376 28,100 900 Climbing Atlanta Center
01:28PM 33.6583 -85.9456 269° West 327 376 29,100 960 Climbing Atlanta Center
01:29PM 33.6631 -86.0556 273° West 327 376 30,100 960 Climbing Atlanta Center
01:30PM 33.6631 -86.1678 270° West 327 376 31,100 900 Climbing Atlanta Center
01:31PM 33.6633 -86.2800 270° West 332 382 32,000 780 Climbing Atlanta Center
01:32PM 33.6653 -86.3925 271° West 332 382 32,700 660 Climbing Atlanta Center
01:33PM 33.6672 -86.5047 271° West 332 382 33,400 660 Climbing Atlanta Center
01:34PM 33.6650 -86.6197 269° West 343 395 34,100 660 Climbing Atlanta Center
01:35PM 33.6689 -86.7319 272° West 343 395 34,800 660 Climbing Atlanta Center
01:36PM 33.6703 -86.8569 271° West 348 400 35,500 660 Climbing Atlanta Center
01:38PM 33.7253 -87.0250 292° West 364 419 36,700 660 Climbing Memphis Center
01:39PM 33.7747 -87.1297 300° West 363 418 37,400 600 Climbing Memphis Center
01:40PM 33.8314 -87.2531 299° West 358 412 38,000 240 Climbing Memphis Center
01:41PM 33.8794 -87.3606 298° West 359 413 38,000  Level Memphis Center
01:42PM 33.9292 -87.4714 298° West 370 426 38,000  Level Memphis Center
01:43PM 33.9789 -87.5847 298° West 377 434 38,000  Level Memphis Center
01:44PM 34.0306 -87.7011 298° West 385 443 38,000  Level Memphis Center
01:45PM 34.0836 -87.8183 299° West 392 451 38,000  Level Memphis Center
01:46PM 34.1436 -87.9567 298° West 395 455 38,000  Level Memphis Center
01:47PM 34.1969 -88.0736 299° West 395 455 38,000  Level Memphis Center
01:48PM 34.2497 -88.1939 298° West 396 456 38,000  Level Memphis Center
01:50PM 34.3019 -88.3111 298° West 395 455 38,000  Level Memphis Center
01:51PM 34.3536 -88.4297 298° West 397 457 38,000  Level Memphis Center
01:52PM 34.4050 -88.5489 298° West 397 457 38,000  Level Memphis Center
01:53PM 34.4558 -88.6669 298° West 397 457 38,000  Level Memphis Center
01:54PM 34.5178 -88.8094 298° West 398 458 38,000  Level Memphis Center
01:55PM 34.5692 -88.9281 298° West 398 458 38,000  Level Memphis Center
01:56PM 34.6217 -89.0506 298° West 403 464 38,000  Level Memphis Center
01:57PM 34.6739 -89.1717 291° West 403 464 38,000  Level Memphis Center
01:58PM 34.7091 -89.2632 297° West  Level FlightAware Approximate
01:58PM 34.7258 -89.2947 297° West 406 467 38,000  Level Memphis Center
01:59PM 34.7783 -89.4175 298° West 406 467 38,000  Level Memphis Center
02:00PM 34.8311 -89.5403 298° West 406 467 38,000  Level Memphis Center
02:01PM 34.8869 -89.6708 298° West 408 470 38,000  Level Memphis Center
02:02PM 34.9386 -89.7967 297° West 410 472 38,000  Level Memphis Center
02:03PM 34.9969 -89.9322 298° West 418 481 38,000  Level Memphis Center
02:04PM 35.0500 -90.0564 298° West 414 476 38,000  Level Memphis Center
02:05PM 35.0416 -90.0962 291° West  Level FlightAware Approximate
02:05PM 35.1139 -90.2006 298° West 410 472 38,000  Level Memphis Center
02:06PM 35.1669 -90.3253 298° West 410 472 38,000  Level Memphis Center
02:07PM 35.2228 -90.4494 299° West 412 474 38,000  Level Memphis Center
02:08PM 35.2781 -90.5744 298° West 414 476 38,000  Level Memphis Center
02:09PM 35.3331 -90.6994 298° West 414 476 38,000  Level Memphis Center
02:10PM 35.3814 -90.8253 295° West 409 471 38,000  Level Memphis Center
02:11PM 35.4344 -90.9472 298° West 407 468 38,000  Level Memphis Center
02:12PM 35.5281 -91.0728 313° West 421 484 38,000  Level Memphis Center
02:13PM 35.6089 -91.1794 289° West 422 486 38,000  Level Memphis Center
02:14PM 35.5999 -91.2165 309° West  Level FlightAware Approximate
02:14PM 35.6936 -91.2908 313° West 420 483 38,000  Level Memphis Center
02:15PM 35.7644 -91.3836 313° West 419 482 38,000  Level Memphis Center
02:16PM 35.8533 -91.4992 314° West 420 483 38,000  Level Memphis Center
02:17PM 35.9308 -91.6050 312° West 418 481 38,000  Level Memphis Center
02:18PM 35.9942 -91.7378 301° West 409 471 38,000  Level Memphis Center
02:20PM 36.0244 -91.8683 286° West 399 459 38,000  Level Memphis Center
02:21PM 35.8802 -92.0830 289° West  Level FlightAware Approximate
02:21PM 36.0553 -91.9972 287° West 394 453 38,000  Level Memphis Center
02:22PM 35.9152 -92.2104 289° West  Level FlightAware Approximate
02:22PM 36.0906 -92.1358 288° West 394 453 38,000  Level Memphis Center
02:23PM 36.1228 -92.2633 287° West 392 451 38,000  Level Memphis Center
02:24PM 36.1547 -92.3903 287° West 391 450 38,000  Level Memphis Center
02:25PM 36.1869 -92.5192 287° West 392 451 38,000  Level Memphis Center
02:26PM 36.2253 -92.6728 287° West 393 452 38,000  Level Memphis Center
02:27PM 36.2578 -92.8031 287° West 395 455 38,000  Level Memphis Center
02:28PM 36.2903 -92.9336 287° West 397 457 38,000  Level Memphis Center
02:29PM 36.3225 -93.0644 287° West 398 458 38,000  Level Memphis Center
02:30PM 36.3547 -93.1933 287° West 396 456 38,000  Level Memphis Center
02:31PM 36.3867 -93.3244 287° West 398 458 38,000  Level Kansas City Center
02:32PM 36.4181 -93.4578 286° West 402 463 38,000  Level Kansas City Center
02:33PM 36.4503 -93.5911 287° West 404 465 38,000  Level Kansas City Center
02:34PM 36.4819 -93.7239 287° West 404 465 38,000  Level Kansas City Center
02:35PM 36.5150 -93.8569 287° West 402 463 38,000  Level Kansas City Center
02:36PM 36.5517 -94.0203 286° West 405 466 38,000  Level Kansas City Center
02:37PM 36.5842 -94.1542 287° West 405 466 38,000  Level Kansas City Center
02:38PM 36.6172 -94.2906 287° West 407 468 38,000  Level Kansas City Center
02:39PM 36.6489 -94.4267 286° West 410 472 38,000  Level Kansas City Center
02:40PM 36.6814 -94.5628 287° West 411 473 38,000  Level Kansas City Center
02:41PM 36.7122 -94.6986 286° West 409 471 38,000  Level Kansas City Center
02:42PM 36.7486 -94.8633 285° West 411 473 38,000  Level Kansas City Center
02:43PM 36.7811 -95.0000 287° West 412 474 38,000  Level Kansas City Center
02:44PM 36.8117 -95.1375 286° West 414 476 38,000  Level Kansas City Center
02:45PM 36.8422 -95.2753 286° West 413 475 38,000  Level Kansas City Center
02:46PM 36.8733 -95.4150 286° West 418 481 38,000  Level Kansas City Center
02:47PM 36.9100 -95.5819 285° West 418 481 38,000  Level Kansas City Center
02:48PM 36.9414 -95.7231 286° West 421 484 38,000  Level Kansas City Center
02:49PM 36.9711 -95.8631 285° West 420 483 38,000  Level Kansas City Center
02:50PM 37.0022 -96.0039 286° West 421 484 38,000  Level Kansas City Center
02:51PM 37.0331 -96.1461 285° West 423 487 38,000  Level Kansas City Center
02:52PM 37.0639 -96.2878 285° West 423 487 38,000  Level Kansas City Center
02:53PM 37.0997 -96.4594 285° West 424 488 38,000  Level Kansas City Center
02:55PM 37.1306 -96.6058 285° West 425 489 38,000  Level Kansas City Center
02:56PM 37.1614 -96.7492 285° West 425 489 38,000  Level Kansas City Center
02:57PM 37.1919 -96.8933 285° West 427 491 38,000  Level Kansas City Center
02:58PM 37.2222 -97.0403 285° West 432 497 38,000  Level Kansas City Center
02:59PM 37.2525 -97.1858 285° West 431 496 38,000  Level Kansas City Center
03:00PM 37.2825 -97.3331 284° West 433 498 38,000  Level Kansas City Center
03:01PM 37.3125 -97.4811 284° West 435 501 38,000  Level Kansas City Center
03:02PM 37.3475 -97.6581 284° West 435 501 38,000  Level Kansas City Center
03:03PM 37.3778 -97.8067 284° West 436 502 38,000  Level Kansas City Center
03:04PM 37.4067 -97.9553 284° West 435 501 38,000  Level Kansas City Center
03:05PM 37.4358 -98.1050 284° West 436 502 38,000  Level Kansas City Center
03:06PM 37.4656 -98.2556 284° West 439 505 38,000  Level Kansas City Center
03:07PM 37.4953 -98.4067 284° West 441 507 38,000  Level Kansas City Center
03:08PM 37.5244 -98.5575 284° West 441 507 38,000  Level Kansas City Center
03:09PM 37.5592 -98.7378 284° West 441 507 38,000  Level Kansas City Center
03:10PM 37.5886 -98.8886 284° West 441 507 38,000  Level Kansas City Center
03:11PM 37.6169 -99.0394 283° West 442 509 38,000  Level Kansas City Center
03:12PM 37.6444 -99.1903 283° West 442 509 38,000  Level Kansas City Center
03:13PM 37.6719 -99.3419 283° West 442 509 38,000  Level Kansas City Center
03:14PM 37.7017 -99.4989 284° West 440 506 38,000  Level Kansas City Center
03:15PM 37.7325 -99.6669 283° West 440 506 38,000  Level Kansas City Center
03:16PM 37.7594 -99.8103 283° West 439 505 38,000  Level Kansas City Center
03:17PM 37.7889 -99.9786 283° West 441 507 38,000  Level Kansas City Center
03:18PM 37.8144 -100.1228 283° West 440 506 38,000  Level Kansas City Center
03:19PM 37.8444 -100.2908 283° West 440 506 38,000  Level Kansas City Center
03:20PM 37.8700 -100.4350 283° West 441 507 38,000  Level Kansas City Center
03:21PM 37.8989 -100.6025 282° West 440 506 38,000  Level Kansas City Center
03:22PM 37.9244 -100.7453 283° West 439 505 38,000  Level Kansas City Center
03:23PM 37.9836 -100.8972 296° West 435 501 38,000  Level Kansas City Center
03:24PM 38.0350 -101.0278 297° West 435 501 38,000  Level Kansas City Center
03:26PM 38.0989 -101.1769 299° West 433 498 38,000  Level Kansas City Center
03:26PM 38.1422 -101.2572 304° West 431 496 38,000  Level Denver Center
03:27PM 38.2025 -101.3811 302° West 431 496 38,000 -180 Level Denver Center
03:28PM 38.2731 -101.5242 302° West 428 493 37,700 -660 Descending Denver Center
03:29PM 38.3317 -101.6489 301° West 429 494 36,700 -660 Descending Denver Center
03:31PM 38.4005 -101.7917 302° West  Level FlightAware Approximate
03:38PM 38.7844 -102.5937 301° West  Level FlightAware Approximate
03:39PM 38.8387 -102.7093 301° West  Level FlightAware Approximate
03:40PM 38.8935 -102.8246 301° West  Level FlightAware Approximate
03:40PM 38.9525 -102.9631 299° West 437 503 30,600  Level Denver Center
03:41PM 38.9471 -102.9409 301° West  Level FlightAware Approximate
03:41PM 39.0256 -103.1228 301° West 433 498 30,000  Level Denver Center
03:42PM 38.9999 -103.0579 300° West  Level FlightAware Approximate
03:43PM 39.0506 -103.1765 297° West  Level FlightAware Approximate
03:43PM 39.1359 -103.3626 298° West  Level FlightAware Approximate
03:44PM 39.1046 -103.2925 303° West  Level FlightAware Approximate
03:45PM 39.1580 -103.4130 299° West  Level FlightAware Approximate
03:46PM 39.2953 -103.7153 270° West 352 405 22,400  Level Denver Center
03:47PM 39.3461 -103.8267 301° West 302 348 20,400 -2,040 Descending Denver Center
03:48PM 39.3875 -103.9167 301° West 295 339 18,200 -1,620 Descending Denver Center
03:49PM 39.4003 -104.0217 279° West 294 338 17,100 -1,260 Descending Denver Center
03:50PM 39.4000 -104.2869 270° West  Level FlightAware Approximate
03:50PM 39.4050 -104.1267 273° West 274 315 15,600  Level Denver Center
03:51PM 39.4103 -104.2228 274° West 270 311 14,000 -1,500 Descending Denver Center
03:52PM 39.4142 -104.3225 273° West 277 319 12,600 -1,320 Descending Denver Center
03:53PM 39.4347 -104.4192 285° West 261 300 11,300 -1,260 Descending Denver Center
03:54PM 39.4711 -104.4978 301° West 257 296 10,100 -660 Descending Denver Center
03:55PM 39.5122 -104.5825 302° West 255 293 10,000 -120 Descending Denver Center
03:56PM 39.5794 -104.6164 339° North 256 295 9,900 -480 Descending Denver Center
03:57PM 39.6350 -104.6417 341° North 213 245 9,100 -780 Descending Denver Center
03:58PM 39.6886 -104.6442 358° North 182 209 8,300 -900 Descending Denver Center
03:59PM 39.7356 -104.6425 North 171 197 7,300 -960 Descending Denver Center
04:00PM 39.7822 -104.6425 360° North 157 181 6,400 -780 Descending Denver Center
04:01PM 39.8225 -104.6414 North 147 169 5,700 -540 Descending Denver Center
04:02PM 39.8514 -104.6411 360° North 116 133 5,400 -300 Descending Denver Center